Abrahams Bay, Bahamas

3:37 PM EST on December 04, 2016 (GMT -0500)
Providenciales International | | Change Station

Elev 16 ft 21.77 °N, 72.27 °W | Updated 1 hour ago

Scattered Clouds
Scattered Clouds
81 °F
Feels Like 84 °F
N
12
Wind Variable Wind from NE

Today
High -- | Low -- °F
--% Chance of Precip.
Yesterday
High -- | Low -- °F
Precip. -- in
Pressure 29.98 in
Visibility 6.2 miles
Clouds Scattered Clouds 1500 ft
Heat Index 84 °F
Dew Point 70 °F
Humidity 70%
Rainfall 0.00 in
Snow Depth Not available.
6:17 AM 5:07 PM
Waxing Crescent, 25% visible
METAR MBPV 041900Z 05010KT 9999 SCT015 27/21 Q1015
Pressure 29.98 in
Visibility 6.2 miles
Clouds Scattered Clouds 1500 ft
Heat Index 84 °F
Dew Point 70 °F
Humidity 70%
Rainfall 0.00 in
Snow Depth Not available.
6:17 AM 5:07 PM
Waxing Crescent, 25% visible
METAR MBPV 041900Z 05010KT 9999 SCT015 27/21 Q1015

10-Day Weather Forecast

No radar image for this location.
×

Almanac

Astronomy

Dec. 04, 2016 Rise Set
Actual Time
Civil Twilight
Nautical Twilight
Astronomical Twilight
Moon
Length of Visible Light
Length of Day
Tomorrow will be .
, % of the Moon is Illuminated

Today's Extremes

Country Highs Country Lows

Community

WunderPhotos

Upload Photos

1,955,667 photos uploaded!

WunderBlog® & News

Nearby

Air Quality

  Air Quality AQ Index Pollutant
Not available.

Snow Depth

Station Depth Elevation

Earthquake Activity

City Distance Mag. Time & Date
Minimum magnitude displayed is 2.5.

Coastal Water Temperatures

Place Temperature

Stations

Nearby Weather Stations

Station Location Temp. Windchill Dew Point Humidity Wind Precip. Elev Updated Type